sensor_id;sensor_type;location;lat;lon;timestamp;pressure;altitude;pressure_sealevel;temperature;humidity
75414;BME280;64758;52.122;5.404;2023-04-06T00:00:08;102074.91;;;0.90;83.19
75414;BME280;64758;52.122;5.404;2023-04-06T00:02:36;102077.13;;;0.96;83.62
75414;BME280;64758;52.122;5.404;2023-04-06T00:05:02;102075.44;;;0.95;83.44
75414;BME280;64758;52.122;5.404;2023-04-06T00:07:29;102063.50;;;0.91;83.33
75414;BME280;64758;52.122;5.404;2023-04-06T00:09:56;102068.44;;;0.96;83.45
75414;BME280;64758;52.122;5.404;2023-04-06T00:12:23;102060.88;;;0.91;83.74
75414;BME280;64758;52.122;5.404;2023-04-06T00:14:49;102062.75;;;0.89;83.57
75414;BME280;64758;52.122;5.404;2023-04-06T00:17:16;102066.19;;;0.90;84.19
75414;BME280;64758;52.122;5.404;2023-04-06T00:19:43;102060.22;;;0.88;84.12
75414;BME280;64758;52.122;5.404;2023-04-06T00:22:09;102060.34;;;0.86;84.16
75414;BME280;64758;52.122;5.404;2023-04-06T00:24:36;102055.09;;;0.86;84.37
75414;BME280;64758;52.122;5.404;2023-04-06T00:27:02;102053.50;;;0.84;84.02
75414;BME280;64758;52.122;5.404;2023-04-06T00:29:29;102045.97;;;0.79;84.66
75414;BME280;64758;52.122;5.404;2023-04-06T00:31:56;102051.94;;;0.81;84.90
75414;BME280;64758;52.122;5.404;2023-04-06T00:34:22;102049.50;;;0.78;85.00
75414;BME280;64758;52.122;5.404;2023-04-06T00:36:49;102045.03;;;0.80;85.06
75414;BME280;64758;52.122;5.404;2023-04-06T00:39:16;102042.41;;;0.80;84.90
75414;BME280;64758;52.122;5.404;2023-04-06T00:41:49;102038.19;;;0.78;85.21
75414;BME280;64758;52.122;5.404;2023-04-06T00:44:17;102036.50;;;0.77;85.12
75414;BME280;64758;52.122;5.404;2023-04-06T00:46:43;102027.75;;;0.78;85.03
75414;BME280;64758;52.122;5.404;2023-04-06T00:49:10;102024.56;;;0.73;85.41
75414;BME280;64758;52.122;5.404;2023-04-06T00:51:37;102034.84;;;0.76;84.93
75414;BME280;64758;52.122;5.404;2023-04-06T00:54:03;102022.63;;;0.76;85.82
75414;BME280;64758;52.122;5.404;2023-04-06T00:56:30;102023.56;;;0.75;85.56
75414;BME280;64758;52.122;5.404;2023-04-06T00:58:57;102021.88;;;0.74;85.55
75414;BME280;64758;52.122;5.404;2023-04-06T01:01:24;102018.31;;;0.75;86.28
75414;BME280;64758;52.122;5.404;2023-04-06T01:03:51;102015.78;;;0.74;86.02
75414;BME280;64758;52.122;5.404;2023-04-06T01:06:18;102013.91;;;0.76;86.24
75414;BME280;64758;52.122;5.404;2023-04-06T01:08:44;102010.38;;;0.77;86.08
75414;BME280;64758;52.122;5.404;2023-04-06T01:11:11;102005.34;;;0.74;86.29
75414;BME280;64758;52.122;5.404;2023-04-06T01:13:37;102006.00;;;0.77;86.12
75414;BME280;64758;52.122;5.404;2023-04-06T01:16:04;102003.38;;;0.77;86.40
75414;BME280;64758;52.122;5.404;2023-04-06T01:18:31;101992.19;;;0.75;86.51
75414;BME280;64758;52.122;5.404;2023-04-06T01:20:58;101996.47;;;0.76;86.27
75414;BME280;64758;52.122;5.404;2023-04-06T01:23:25;101998.78;;;0.81;86.09
75414;BME280;64758;52.122;5.404;2023-04-06T01:25:52;101999.53;;;0.83;86.80
75414;BME280;64758;52.122;5.404;2023-04-06T01:28:19;101989.81;;;0.85;86.30
75414;BME280;64758;52.122;5.404;2023-04-06T01:30:45;101993.91;;;0.89;86.30
75414;BME280;64758;52.122;5.404;2023-04-06T01:33:12;101979.81;;;0.91;86.54
75414;BME280;64758;52.122;5.404;2023-04-06T01:35:39;101973.66;;;0.92;86.25
75414;BME280;64758;52.122;5.404;2023-04-06T01:38:05;101981.41;;;0.94;86.63
75414;BME280;64758;52.122;5.404;2023-04-06T01:40:32;101977.03;;;0.94;86.94
75414;BME280;64758;52.122;5.404;2023-04-06T01:42:59;101972.59;;;0.95;86.66
75414;BME280;64758;52.122;5.404;2023-04-06T01:45:25;101968.25;;;0.95;86.71
75414;BME280;64758;52.122;5.404;2023-04-06T01:47:52;101971.28;;;1.02;86.45
75414;BME280;64758;52.122;5.404;2023-04-06T01:50:18;101970.06;;;1.07;86.51
75414;BME280;64758;52.122;5.404;2023-04-06T01:52:46;101960.75;;;1.03;86.36
75414;BME280;64758;52.122;5.404;2023-04-06T01:55:12;101954.56;;;1.04;86.35
75414;BME280;64758;52.122;5.404;2023-04-06T01:57:39;101962.03;;;1.10;86.24
75414;BME280;64758;52.122;5.404;2023-04-06T02:00:06;101948.22;;;1.08;86.00
75414;BME280;64758;52.122;5.404;2023-04-06T02:02:33;101946.34;;;1.10;86.74
75414;BME280;64758;52.122;5.404;2023-04-06T02:04:59;101949.56;;;1.14;86.69
75414;BME280;64758;52.122;5.404;2023-04-06T02:07:26;101951.16;;;1.16;86.28
75414;BME280;64758;52.122;5.404;2023-04-06T02:09:54;101935.34;;;1.18;86.17
75414;BME280;64758;52.122;5.404;2023-04-06T02:12:21;101944.59;;;1.23;86.55
75414;BME280;64758;52.122;5.404;2023-04-06T02:14:48;101939.16;;;1.26;86.40
75414;BME280;64758;52.122;5.404;2023-04-06T02:17:15;101929.66;;;1.25;86.27
75414;BME280;64758;52.122;5.404;2023-04-06T02:19:41;101927.66;;;1.28;86.46
75414;BME280;64758;52.122;5.404;2023-04-06T02:22:09;101920.63;;;1.29;86.67
75414;BME280;64758;52.122;5.404;2023-04-06T02:24:36;101932.56;;;1.33;86.37
75414;BME280;64758;52.122;5.404;2023-04-06T02:27:02;101931.44;;;1.37;85.76
75414;BME280;64758;52.122;5.404;2023-04-06T02:29:29;101922.63;;;1.38;86.58
75414;BME280;64758;52.122;5.404;2023-04-06T02:31:55;101924.31;;;1.39;86.49
75414;BME280;64758;52.122;5.404;2023-04-06T02:34:22;101918.13;;;1.40;86.05
75414;BME280;64758;52.122;5.404;2023-04-06T02:36:49;101925.78;;;1.43;86.56
75414;BME280;64758;52.122;5.404;2023-04-06T02:39:15;101923.09;;;1.44;86.32
75414;BME280;64758;52.122;5.404;2023-04-06T02:41:42;101917.66;;;1.47;86.69
75414;BME280;64758;52.122;5.404;2023-04-06T02:44:09;101913.56;;;1.56;86.94
75414;BME280;64758;52.122;5.404;2023-04-06T02:46:35;101904.78;;;1.57;87.01
75414;BME280;64758;52.122;5.404;2023-04-06T02:49:02;101906.25;;;1.61;86.18
75414;BME280;64758;52.122;5.404;2023-04-06T02:51:29;101901.00;;;1.61;86.84
75414;BME280;64758;52.122;5.404;2023-04-06T02:53:55;101893.88;;;1.63;86.06
75414;BME280;64758;52.122;5.404;2023-04-06T02:56:22;101895.34;;;1.67;86.39
75414;BME280;64758;52.122;5.404;2023-04-06T02:58:48;101903.75;;;1.72;86.75
75414;BME280;64758;52.122;5.404;2023-04-06T03:01:15;101897.47;;;1.74;86.43
75414;BME280;64758;52.122;5.404;2023-04-06T03:03:41;101892.75;;;1.79;86.96
75414;BME280;64758;52.122;5.404;2023-04-06T03:06:08;101889.06;;;1.82;86.75
75414;BME280;64758;52.122;5.404;2023-04-06T03:08:35;101883.41;;;1.88;86.69
75414;BME280;64758;52.122;5.404;2023-04-06T03:11:01;101880.78;;;1.88;86.99
75414;BME280;64758;52.122;5.404;2023-04-06T03:13:28;101877.88;;;1.92;87.19
75414;BME280;64758;52.122;5.404;2023-04-06T03:15:54;101885.41;;;1.97;87.01
75414;BME280;64758;52.122;5.404;2023-04-06T03:18:23;101889.69;;;1.98;87.05
75414;BME280;64758;52.122;5.404;2023-04-06T03:20:50;101884.25;;;2.01;87.07
75414;BME280;64758;52.122;5.404;2023-04-06T03:23:17;101873.56;;;2.04;87.34
75414;BME280;64758;52.122;5.404;2023-04-06T03:25:43;101867.38;;;2.05;87.29
75414;BME280;64758;52.122;5.404;2023-04-06T03:28:10;101875.75;;;2.10;87.35
75414;BME280;64758;52.122;5.404;2023-04-06T03:30:36;101861.81;;;2.09;86.84
75414;BME280;64758;52.122;5.404;2023-04-06T03:33:03;101862.13;;;2.17;87.48
75414;BME280;64758;52.122;5.404;2023-04-06T03:35:30;101858.44;;;2.20;87.77
75414;BME280;64758;52.122;5.404;2023-04-06T03:37:56;101851.31;;;2.22;87.33
75414;BME280;64758;52.122;5.404;2023-04-06T03:40:23;101864.19;;;2.25;87.37
75414;BME280;64758;52.122;5.404;2023-04-06T03:42:50;101852.03;;;2.24;87.67
75414;BME280;64758;52.122;5.404;2023-04-06T03:45:17;101849.63;;;2.21;87.48
75414;BME280;64758;52.122;5.404;2023-04-06T03:47:43;101840.00;;;2.21;87.51
75414;BME280;64758;52.122;5.404;2023-04-06T03:50:10;101858.00;;;2.26;87.21
75414;BME280;64758;52.122;5.404;2023-04-06T03:52:36;101857.78;;;2.29;87.30
75414;BME280;64758;52.122;5.404;2023-04-06T03:55:03;101848.38;;;2.26;86.67
75414;BME280;64758;52.122;5.404;2023-04-06T03:57:30;101854.88;;;2.33;86.72
75414;BME280;64758;52.122;5.404;2023-04-06T03:59:57;101849.41;;;2.36;87.04
75414;BME280;64758;52.122;5.404;2023-04-06T04:02:23;101853.06;;;2.34;86.67
75414;BME280;64758;52.122;5.404;2023-04-06T04:04:50;101843.75;;;2.30;87.34
75414;BME280;64758;52.122;5.404;2023-04-06T04:07:17;101848.47;;;2.37;88.02
75414;BME280;64758;52.122;5.404;2023-04-06T04:09:43;101857.13;;;2.38;87.42
75414;BME280;64758;52.122;5.404;2023-04-06T04:12:10;101848.34;;;2.39;87.88
75414;BME280;64758;52.122;5.404;2023-04-06T04:14:36;101846.88;;;2.35;86.96
75414;BME280;64758;52.122;5.404;2023-04-06T04:17:03;101843.53;;;2.33;87.86
75414;BME280;64758;52.122;5.404;2023-04-06T04:19:29;101839.13;;;2.33;87.98
75414;BME280;64758;52.122;5.404;2023-04-06T04:21:56;101843.66;;;2.31;87.90
75414;BME280;64758;52.122;5.404;2023-04-06T04:24:22;101841.13;;;2.30;87.87
75414;BME280;64758;52.122;5.404;2023-04-06T04:26:49;101848.03;;;2.31;87.94
75414;BME280;64758;52.122;5.404;2023-04-06T04:29:15;101847.81;;;2.34;87.64
75414;BME280;64758;52.122;5.404;2023-04-06T04:31:42;101838.06;;;2.36;87.80
75414;BME280;64758;52.122;5.404;2023-04-06T04:34:09;101844.16;;;2.36;88.32
75414;BME280;64758;52.122;5.404;2023-04-06T04:36:35;101838.41;;;2.31;87.78
75414;BME280;64758;52.122;5.404;2023-04-06T04:39:02;101846.78;;;2.36;87.93
75414;BME280;64758;52.122;5.404;2023-04-06T04:41:29;101838.06;;;2.36;87.82
75414;BME280;64758;52.122;5.404;2023-04-06T04:43:55;101843.09;;;2.39;87.70
75414;BME280;64758;52.122;5.404;2023-04-06T04:46:22;101837.25;;;2.35;87.76
75414;BME280;64758;52.122;5.404;2023-04-06T04:48:49;101838.78;;;2.38;87.93
75414;BME280;64758;52.122;5.404;2023-04-06T04:51:15;101836.28;;;2.36;88.36
75414;BME280;64758;52.122;5.404;2023-04-06T04:53:42;101837.97;;;2.37;87.85
75414;BME280;64758;52.122;5.404;2023-04-06T04:56:09;101838.69;;;2.39;87.93
75414;BME280;64758;52.122;5.404;2023-04-06T04:58:35;101844.44;;;2.44;88.16
75414;BME280;64758;52.122;5.404;2023-04-06T05:01:02;101837.63;;;2.42;88.28
75414;BME280;64758;52.122;5.404;2023-04-06T05:03:29;101837.19;;;2.47;87.77
75414;BME280;64758;52.122;5.404;2023-04-06T05:05:56;101829.09;;;2.50;87.60
75414;BME280;64758;52.122;5.404;2023-04-06T05:08:22;101834.84;;;2.55;87.25
75414;BME280;64758;52.122;5.404;2023-04-06T05:10:49;101824.38;;;2.55;87.20
75414;BME280;64758;52.122;5.404;2023-04-06T05:13:15;101827.50;;;2.60;87.08
75414;BME280;64758;52.122;5.404;2023-04-06T05:15:42;101837.09;;;2.72;86.52
75414;BME280;64758;52.122;5.404;2023-04-06T05:18:09;101822.69;;;2.78;86.54
75414;BME280;64758;52.122;5.404;2023-04-06T05:20:37;101828.09;;;2.87;86.59
75414;BME280;64758;52.122;5.404;2023-04-06T05:23:04;101835.38;;;2.95;85.48
75414;BME280;64758;52.122;5.404;2023-04-06T05:25:31;101826.25;;;3.00;85.44
75414;BME280;64758;52.122;5.404;2023-04-06T05:27:58;101824.72;;;3.09;84.87
75414;BME280;64758;52.122;5.404;2023-04-06T05:30:25;101820.66;;;3.16;85.03
75414;BME280;64758;52.122;5.404;2023-04-06T05:32:51;101822.84;;;3.22;84.62
75414;BME280;64758;52.122;5.404;2023-04-06T05:35:18;101813.69;;;3.27;84.16
75414;BME280;64758;52.122;5.404;2023-04-06T05:37:45;101822.31;;;3.40;84.87
75414;BME280;64758;52.122;5.404;2023-04-06T05:40:12;101823.38;;;3.49;84.79
75414;BME280;64758;52.122;5.404;2023-04-06T05:42:39;101825.44;;;3.56;83.93
75414;BME280;64758;52.122;5.404;2023-04-06T05:45:08;101813.13;;;3.68;84.31
75414;BME280;64758;52.122;5.404;2023-04-06T05:47:35;101807.53;;;3.72;83.71
75414;BME280;64758;52.122;5.404;2023-04-06T05:50:02;101816.97;;;3.85;83.40
75414;BME280;64758;52.122;5.404;2023-04-06T05:52:28;101801.53;;;3.92;82.88
75414;BME280;64758;52.122;5.404;2023-04-06T05:54:55;101803.34;;;4.02;82.19
75414;BME280;64758;52.122;5.404;2023-04-06T05:57:21;101802.84;;;4.08;81.43
75414;BME280;64758;52.122;5.404;2023-04-06T05:59:48;101807.25;;;4.19;81.04
75414;BME280;64758;52.122;5.404;2023-04-06T06:02:14;101804.13;;;4.25;81.17
75414;BME280;64758;52.122;5.404;2023-04-06T06:04:41;101799.81;;;4.35;80.38
75414;BME280;64758;52.122;5.404;2023-04-06T06:07:07;101806.25;;;4.42;79.88
75414;BME280;64758;52.122;5.404;2023-04-06T06:09:34;101811.03;;;4.48;79.16
75414;BME280;64758;52.122;5.404;2023-04-06T06:12:00;101807.19;;;4.52;79.00
75414;BME280;64758;52.122;5.404;2023-04-06T06:14:27;101818.16;;;4.57;78.13
75414;BME280;64758;52.122;5.404;2023-04-06T06:16:54;101805.72;;;4.59;78.09
75414;BME280;64758;52.122;5.404;2023-04-06T06:19:21;101805.84;;;4.68;77.75
75414;BME280;64758;52.122;5.404;2023-04-06T06:21:48;101803.53;;;4.75;77.49
75414;BME280;64758;52.122;5.404;2023-04-06T06:24:14;101813.44;;;4.82;77.58
75414;BME280;64758;52.122;5.404;2023-04-06T06:26:41;101805.03;;;4.88;77.18
75414;BME280;64758;52.122;5.404;2023-04-06T06:29:07;101809.66;;;4.96;76.67
75414;BME280;64758;52.122;5.404;2023-04-06T06:31:34;101799.59;;;5.00;76.71
75414;BME280;64758;52.122;5.404;2023-04-06T06:34:01;101795.47;;;5.07;76.57
75414;BME280;64758;52.122;5.404;2023-04-06T06:36:29;101809.84;;;5.24;76.48
75414;BME280;64758;52.122;5.404;2023-04-06T06:38:57;101795.81;;;5.34;75.68
75414;BME280;64758;52.122;5.404;2023-04-06T06:41:25;101796.00;;;5.42;74.99
75414;BME280;64758;52.122;5.404;2023-04-06T06:43:52;101798.16;;;5.58;74.93
75414;BME280;64758;52.122;5.404;2023-04-06T06:46:20;101796.53;;;5.66;73.72
75414;BME280;64758;52.122;5.404;2023-04-06T06:48:47;101792.88;;;5.78;73.99
75414;BME280;64758;52.122;5.404;2023-04-06T06:51:13;101789.19;;;5.90;73.65
75414;BME280;64758;52.122;5.404;2023-04-06T06:53:40;101796.03;;;6.02;73.46
75414;BME280;64758;52.122;5.404;2023-04-06T06:56:06;101794.97;;;6.14;72.96
75414;BME280;64758;52.122;5.404;2023-04-06T06:58:33;101802.47;;;6.19;71.73
75414;BME280;64758;52.122;5.404;2023-04-06T07:00:59;101791.38;;;6.25;71.25
75414;BME280;64758;52.122;5.404;2023-04-06T07:03:26;101794.59;;;6.28;70.95
75414;BME280;64758;52.122;5.404;2023-04-06T07:05:53;101787.91;;;6.33;70.36
75414;BME280;64758;52.122;5.404;2023-04-06T07:08:21;101786.69;;;6.37;70.41
75414;BME280;64758;52.122;5.404;2023-04-06T07:10:51;101786.25;;;6.42;69.91
75414;BME280;64758;52.122;5.404;2023-04-06T07:13:19;101781.41;;;6.47;69.87
75414;BME280;64758;52.122;5.404;2023-04-06T07:15:50;101773.47;;;6.47;68.64
75414;BME280;64758;52.122;5.404;2023-04-06T07:18:17;101773.38;;;6.48;69.57
75414;BME280;64758;52.122;5.404;2023-04-06T07:20:44;101775.31;;;6.56;69.53
75414;BME280;64758;52.122;5.404;2023-04-06T07:23:11;101783.09;;;6.57;68.98
75414;BME280;64758;52.122;5.404;2023-04-06T07:25:37;101776.97;;;6.57;68.83
75414;BME280;64758;52.122;5.404;2023-04-06T07:28:04;101767.25;;;6.57;68.76
75414;BME280;64758;52.122;5.404;2023-04-06T07:30:31;101771.41;;;6.60;69.19
75414;BME280;64758;52.122;5.404;2023-04-06T07:33:00;101775.59;;;6.62;68.88
75414;BME280;64758;52.122;5.404;2023-04-06T07:35:27;101768.09;;;6.67;68.56
75414;BME280;64758;52.122;5.404;2023-04-06T07:37:54;101769.50;;;6.71;68.73
75414;BME280;64758;52.122;5.404;2023-04-06T07:40:21;101776.84;;;6.77;68.25
75414;BME280;64758;52.122;5.404;2023-04-06T07:42:47;101773.53;;;6.75;68.25
75414;BME280;64758;52.122;5.404;2023-04-06T07:45:14;101777.13;;;6.84;68.17
75414;BME280;64758;52.122;5.404;2023-04-06T07:47:42;101772.81;;;6.92;68.10
75414;BME280;64758;52.122;5.404;2023-04-06T07:50:09;101772.81;;;7.02;67.88
75414;BME280;64758;52.122;5.404;2023-04-06T07:52:36;101760.28;;;7.04;67.70
75414;BME280;64758;52.122;5.404;2023-04-06T07:55:04;101767.25;;;7.14;67.73
75414;BME280;64758;52.122;5.404;2023-04-06T07:57:31;101774.44;;;7.22;67.27
75414;BME280;64758;52.122;5.404;2023-04-06T07:59:57;101771.25;;;7.28;67.20
75414;BME280;64758;52.122;5.404;2023-04-06T08:02:24;101780.56;;;7.32;66.96
75414;BME280;64758;52.122;5.404;2023-04-06T08:04:50;101774.41;;;7.41;66.80
75414;BME280;64758;52.122;5.404;2023-04-06T08:07:17;101768.16;;;7.42;66.67
75414;BME280;64758;52.122;5.404;2023-04-06T08:09:44;101766.19;;;7.44;66.23
75414;BME280;64758;52.122;5.404;2023-04-06T08:12:10;101774.94;;;7.53;66.63
75414;BME280;64758;52.122;5.404;2023-04-06T08:14:37;101758.22;;;7.62;66.37
75414;BME280;64758;52.122;5.404;2023-04-06T08:17:03;101760.66;;;7.73;66.33
75414;BME280;64758;52.122;5.404;2023-04-06T08:19:32;101763.41;;;7.81;65.58
75414;BME280;64758;52.122;5.404;2023-04-06T08:21:58;101771.84;;;7.94;65.75
75414;BME280;64758;52.122;5.404;2023-04-06T08:24:25;101760.22;;;8.05;65.51
75414;BME280;64758;52.122;5.404;2023-04-06T08:26:52;101765.47;;;8.14;64.95
75414;BME280;64758;52.122;5.404;2023-04-06T08:29:19;101760.19;;;8.14;65.47
75414;BME280;64758;52.122;5.404;2023-04-06T08:31:45;101758.75;;;8.29;64.46
75414;BME280;64758;52.122;5.404;2023-04-06T08:34:12;101762.69;;;8.43;64.90
75414;BME280;64758;52.122;5.404;2023-04-06T08:36:40;101757.47;;;8.51;64.17
75414;BME280;64758;52.122;5.404;2023-04-06T08:39:07;101760.78;;;8.53;64.83
75414;BME280;64758;52.122;5.404;2023-04-06T08:41:34;101755.44;;;8.62;64.67
75414;BME280;64758;52.122;5.404;2023-04-06T08:44:01;101755.06;;;8.75;64.23
75414;BME280;64758;52.122;5.404;2023-04-06T08:46:29;101755.28;;;8.81;63.72
75414;BME280;64758;52.122;5.404;2023-04-06T08:49:02;101761.81;;;8.69;63.07
75414;BME280;64758;52.122;5.404;2023-04-06T08:51:29;101758.16;;;8.70;63.51
75414;BME280;64758;52.122;5.404;2023-04-06T08:53:57;101755.66;;;8.86;63.57
75414;BME280;64758;52.122;5.404;2023-04-06T08:56:26;101762.53;;;8.96;63.01
75414;BME280;64758;52.122;5.404;2023-04-06T08:58:54;101752.31;;;9.01;63.00
75414;BME280;64758;52.122;5.404;2023-04-06T09:01:27;101769.31;;;8.99;62.91
75414;BME280;64758;52.122;5.404;2023-04-06T09:03:59;101760.19;;;8.93;63.01
75414;BME280;64758;52.122;5.404;2023-04-06T09:06:27;101754.34;;;9.07;62.83
75414;BME280;64758;52.122;5.404;2023-04-06T09:08:54;101758.53;;;9.18;62.75
75414;BME280;64758;52.122;5.404;2023-04-06T09:11:21;101752.50;;;9.25;63.02
75414;BME280;64758;52.122;5.404;2023-04-06T09:13:52;101755.38;;;9.40;62.42
75414;BME280;64758;52.122;5.404;2023-04-06T09:16:20;101758.31;;;9.54;62.43
75414;BME280;64758;52.122;5.404;2023-04-06T09:18:48;101754.84;;;9.62;61.80
75414;BME280;64758;52.122;5.404;2023-04-06T09:21:19;101762.41;;;9.74;62.18
75414;BME280;64758;52.122;5.404;2023-04-06T09:24:01;101754.28;;;9.76;61.37
75414;BME280;64758;52.122;5.404;2023-04-06T09:26:28;101752.59;;;9.75;61.53
75414;BME280;64758;52.122;5.404;2023-04-06T09:28:59;101754.59;;;9.73;61.95
75414;BME280;64758;52.122;5.404;2023-04-06T09:31:29;101746.59;;;9.65;61.71
75414;BME280;64758;52.122;5.404;2023-04-06T09:33:58;101754.63;;;9.81;61.55
75414;BME280;64758;52.122;5.404;2023-04-06T09:36:36;101755.63;;;9.80;62.21
75414;BME280;64758;52.122;5.404;2023-04-06T09:39:07;101752.66;;;9.83;62.00
75414;BME280;64758;52.122;5.404;2023-04-06T09:41:35;101757.63;;;9.86;61.69
75414;BME280;64758;52.122;5.404;2023-04-06T09:44:19;101752.75;;;9.65;61.86
75414;BME280;64758;52.122;5.404;2023-04-06T09:46:47;101751.25;;;9.71;62.91
75414;BME280;64758;52.122;5.404;2023-04-06T09:49:30;101741.34;;;9.81;62.97
75414;BME280;64758;52.122;5.404;2023-04-06T09:52:02;101760.75;;;9.73;64.24
75414;BME280;64758;52.122;5.404;2023-04-06T09:54:31;101760.22;;;9.70;65.03
75414;BME280;64758;52.122;5.404;2023-04-06T09:57:07;101750.59;;;9.69;65.86
75414;BME280;64758;52.122;5.404;2023-04-06T09:59:48;101757.16;;;9.57;67.73
75414;BME280;64758;52.122;5.404;2023-04-06T10:07:54;101760.78;;;9.56;68.82
75414;BME280;64758;52.122;5.404;2023-04-06T10:10:28;101759.19;;;9.63;68.36
75414;BME280;64758;52.122;5.404;2023-04-06T10:12:56;101757.56;;;9.70;69.02
75414;BME280;64758;52.122;5.404;2023-04-06T10:15:23;101760.34;;;9.60;68.22
75414;BME280;64758;52.122;5.404;2023-04-06T10:17:51;101764.13;;;9.58;69.67
75414;BME280;64758;52.122;5.404;2023-04-06T10:20:48;101759.94;;;9.81;70.25
75414;BME280;64758;52.122;5.404;2023-04-06T10:23:37;101760.78;;;9.81;70.64
75414;BME280;64758;52.122;5.404;2023-04-06T10:26:13;101755.38;;;9.65;69.57
75414;BME280;64758;52.122;5.404;2023-04-06T10:28:42;101755.50;;;9.56;70.54
75414;BME280;64758;52.122;5.404;2023-04-06T10:31:09;101756.34;;;9.56;70.91
75414;BME280;64758;52.122;5.404;2023-04-06T10:33:35;101751.47;;;9.52;71.68
75414;BME280;64758;52.122;5.404;2023-04-06T10:36:13;101758.88;;;9.40;71.61
75414;BME280;64758;52.122;5.404;2023-04-06T10:38:41;101768.69;;;9.48;75.03
75414;BME280;64758;52.122;5.404;2023-04-06T10:41:11;101763.75;;;9.27;75.04
75414;BME280;64758;52.122;5.404;2023-04-06T10:43:40;101752.94;;;9.21;76.07
75414;BME280;64758;52.122;5.404;2023-04-06T10:46:09;101768.22;;;9.27;77.08
75414;BME280;64758;52.122;5.404;2023-04-06T10:48:41;101769.38;;;9.24;77.92
75414;BME280;64758;52.122;5.404;2023-04-06T10:53:41;101756.25;;;9.23;79.07
75414;BME280;64758;52.122;5.404;2023-04-06T10:56:15;101751.22;;;9.12;79.06
75414;BME280;64758;52.122;5.404;2023-04-06T10:58:49;101751.31;;;9.02;80.69
75414;BME280;64758;52.122;5.404;2023-04-06T11:01:18;101752.16;;;8.85;81.87
75414;BME280;64758;52.122;5.404;2023-04-06T11:03:51;101751.06;;;8.88;82.06
75414;BME280;64758;52.122;5.404;2023-04-06T11:06:23;101756.84;;;8.91;82.10
75414;BME280;64758;52.122;5.404;2023-04-06T11:08:50;101760.69;;;8.97;83.78
75414;BME280;64758;52.122;5.404;2023-04-06T11:11:19;101754.41;;;8.98;83.36
75414;BME280;64758;52.122;5.404;2023-04-06T11:19:01;101752.06;;;8.95;83.68
75414;BME280;64758;52.122;5.404;2023-04-06T11:21:48;101745.44;;;8.91;84.61
75414;BME280;64758;52.122;5.404;2023-04-06T11:24:20;101747.25;;;8.90;84.63
75414;BME280;64758;52.122;5.404;2023-04-06T11:26:58;101735.34;;;8.94;86.24
75414;BME280;64758;52.122;5.404;2023-04-06T11:29:29;101730.25;;;9.01;85.08
75414;BME280;64758;52.122;5.404;2023-04-06T11:32:04;101727.97;;;9.06;86.48
75414;BME280;64758;52.122;5.404;2023-04-06T11:34:39;101729.50;;;9.08;85.90
75414;BME280;64758;52.122;5.404;2023-04-06T11:37:08;101712.00;;;8.90;85.54
75414;BME280;64758;52.122;5.404;2023-04-06T11:40:01;101728.22;;;8.95;86.01
75414;BME280;64758;52.122;5.404;2023-04-06T11:42:29;101725.56;;;8.95;86.20
75414;BME280;64758;52.122;5.404;2023-04-06T11:44:59;101720.03;;;9.06;87.47
75414;BME280;64758;52.122;5.404;2023-04-06T11:47:31;101713.00;;;8.97;86.40
75414;BME280;64758;52.122;5.404;2023-04-06T11:50:12;101713.91;;;9.05;86.30
75414;BME280;64758;52.122;5.404;2023-04-06T11:52:41;101706.41;;;9.01;86.49
75414;BME280;64758;52.122;5.404;2023-04-06T11:57:39;101700.91;;;9.20;86.56
75414;BME280;64758;52.122;5.404;2023-04-06T12:00:08;101703.09;;;9.24;84.95
75414;BME280;64758;52.122;5.404;2023-04-06T12:02:36;101708.19;;;9.18;86.32
75414;BME280;64758;52.122;5.404;2023-04-06T12:05:04;101706.47;;;9.34;86.71
75414;BME280;64758;52.122;5.404;2023-04-06T12:07:32;101702.31;;;9.32;86.07
75414;BME280;64758;52.122;5.404;2023-04-06T12:10:01;101689.22;;;9.30;87.41
75414;BME280;64758;52.122;5.404;2023-04-06T12:12:28;101688.06;;;9.33;86.25
75414;BME280;64758;52.122;5.404;2023-04-06T12:14:55;101686.63;;;9.38;86.80
75414;BME280;64758;52.122;5.404;2023-04-06T12:17:22;101686.09;;;9.35;86.85
75414;BME280;64758;52.122;5.404;2023-04-06T12:19:49;101690.13;;;9.47;87.96
75414;BME280;64758;52.122;5.404;2023-04-06T12:22:17;101682.50;;;9.44;87.52
75414;BME280;64758;52.122;5.404;2023-04-06T12:24:44;101684.44;;;9.34;85.89
75414;BME280;64758;52.122;5.404;2023-04-06T12:27:10;101680.06;;;9.25;87.12
75414;BME280;64758;52.122;5.404;2023-04-06T12:29:38;101687.66;;;9.20;88.08
75414;BME280;64758;52.122;5.404;2023-04-06T12:32:04;101674.91;;;9.15;87.54
75414;BME280;64758;52.122;5.404;2023-04-06T12:34:32;101682.31;;;9.12;87.70
75414;BME280;64758;52.122;5.404;2023-04-06T12:36:59;101679.47;;;9.05;87.54
75414;BME280;64758;52.122;5.404;2023-04-06T12:39:27;101679.97;;;9.09;89.56
75414;BME280;64758;52.122;5.404;2023-04-06T12:41:54;101682.94;;;9.06;88.83
75414;BME280;64758;52.122;5.404;2023-04-06T12:44:21;101677.94;;;9.03;88.27
75414;BME280;64758;52.122;5.404;2023-04-06T12:46:50;101678.47;;;9.06;89.20
75414;BME280;64758;52.122;5.404;2023-04-06T12:49:17;101681.75;;;9.00;88.65
75414;BME280;64758;52.122;5.404;2023-04-06T12:51:45;101685.16;;;8.93;88.08
75414;BME280;64758;52.122;5.404;2023-04-06T12:54:11;101683.16;;;8.87;88.57
75414;BME280;64758;52.122;5.404;2023-04-06T12:56:38;101672.19;;;8.82;88.55
75414;BME280;64758;52.122;5.404;2023-04-06T12:59:05;101667.94;;;8.89;88.60
75414;BME280;64758;52.122;5.404;2023-04-06T13:01:31;101671.91;;;8.93;89.34
75414;BME280;64758;52.122;5.404;2023-04-06T13:03:59;101651.94;;;8.98;90.35
75414;BME280;64758;52.122;5.404;2023-04-06T13:06:25;101669.00;;;9.04;89.44
75414;BME280;64758;52.122;5.404;2023-04-06T13:08:55;101655.44;;;9.07;89.22
75414;BME280;64758;52.122;5.404;2023-04-06T13:11:22;101652.28;;;9.03;89.31
75414;BME280;64758;52.122;5.404;2023-04-06T13:13:53;101660.00;;;8.97;89.48
75414;BME280;64758;52.122;5.404;2023-04-06T13:16:19;101658.34;;;8.96;90.51
75414;BME280;64758;52.122;5.404;2023-04-06T13:18:46;101654.88;;;8.95;91.69